Minneapolis, Minnesota
Traffic Map
Current Weather Conditions
Minneapolis, Minnesota
Scattered Clouds
Scattered Clouds
17°
Feels Like: 17°
Wind Chill: 17° Ceiling: Unl
Heat Index: 17° Visibility: 10mi
Dew Point: 13° Wind: 9mph
Humidity: 80% Direction: 120° (ESE)
Pressure: 30.08in Gusts: 0mph
Raw Report DataKMSP 281053Z 12008KT 10SM SCT300 17/13 A3008 RMK AO2 SLP182 T01670133
Traffic Incident Summary
Active as of:
Severity:
Category:
InformationThere was an issue retrieving the traffic information for this location. Please try a different location or try again shortly.
Advertisements
Track Severe Weather on mobile